Swainsboro, GA

7:47 PM EDT on May 24, 2017 (GMT -0400)
Emanuel County | | Change Station
Active Advisory: Tornado Watch

Elev 328 ft 32.61 °N, 82.37 °W | Updated 12 minutes ago

Overcast
Overcast
64 °F
Feels Like 64 °F
N
7
Wind Variable Wind from South

Today
High -- | Low -- °F
--% Chance of Precip.
Yesterday
High -- | Low -- °F
Precip. -- in
Pressure 29.54 in
Visibility 10.0 miles
Clouds Scattered Clouds 600 ft
Mostly Cloudy 9500 ft
Overcast 11000 ft
Dew Point 64 °F
Humidity 100%
Rainfall 0.00 in
Snow Depth Not available.
6:25 AM 8:27 PM
Waning Crescent, 1% visible
METAR KSBO 242335Z AUTO 17006KT 10SM SCT006 BKN095 OVC110 18/18 A2954 RMK AO2
Pressure 29.54 in
Visibility 10.0 miles
Clouds Scattered Clouds 600 ft
Mostly Cloudy 9500 ft
Overcast 11000 ft
Dew Point 64 °F
Humidity 100%
Rainfall 0.00 in
Snow Depth Not available.
6:25 AM 8:27 PM
Waning Crescent, 1% visible
METAR KSBO 242335Z AUTO 17006KT 10SM SCT006 BKN095 OVC110 18/18 A2954 RMK AO2

Get Your Daily Forecast Email!

Thanks for signing up!

Be on the lookout for a verification email in your inbox.

You'll start receiving severe weather alerts in your inbox..

×

10-Day Weather Forecast

Almanac

Astronomy

May. 24, 2017 Rise Set
Actual Time
Civil Twilight
Nautical Twilight
Astronomical Twilight
Moon
Length of Visible Light
Length of Day
Tomorrow will be .
, % of the Moon is Illuminated

Today's Extremes

State Highs State Lows

Community

WunderPhotos

Category 6

Welcome to Category 6. This is the collective home for Weather Underground's featured writeups by Dr. Jeff Masters (right), Bob Henson (left), Chris Burt, and other regular contributors.

Nearby

Air Quality

  Air Quality AQ Index Pollutant
Not available.

Snow Depth

Station Depth Elevation

Earthquake Activity

City Distance Mag. Time & Date
Minimum magnitude displayed is 2.5.

Coastal Water Temperatures

Place Temperature

Stations

Nearby Weather Stations

Station Location Temp. Windchill Dew Point Humidity Wind Precip. Elev Updated Type
                   

Watches & Warnings

Tornado Watch
Issued: 7:43 PM EDT May. 24, 2017 – National Weather Service

Tornado Watch 263 remains in effect until 1100 PM EDT for the
following locations


GA
. Georgia counties included are

Appling Atkinson Bacon
Baldwin Ben Hill Berrien
Bleckley Brantley Brooks
Burke Camden Charlton
Clinch Coffee Colquitt
Columbia Cook crisp
Dodge Dooly Echols
Emanuel Glascock Glynn
Hancock Irwin Jeff Davis
Jefferson Johnson Lanier
Laurens Lowndes McDuffie
Montgomery Pierce Pulaski
Richmond Taliaferro Telfair
Thomas Tift Toombs
Treutlen Turner Twiggs
Ware Warren Washington
Wayne Wheeler Wilcox
Wilkinson Worth